Time;durP1;ratioP1;P1;durP2;ratioP2;P2;SDS_P1;SDS_P2;PMS_P1;PMS_P2;Temp;Humidity;BMP_temperature;BMP_pressure;BME280_temperature;BME280_humidity;BME280_pressure;Samples;Min_cycle;Max_cycle;Signal;HPM_P1;HPM_P2
2023/08/29 00:02:41;;;;;;;6.60;4.57;;;;;;;-144.30;50.22;84017.06;5087793;28;20198;-54
2023/08/29 00:05:40;;;;;;;7.30;5.18;;;;;;;-144.30;49.89;84025.03;5092056;28;20230;-54
2023/08/29 00:09:09;;;;;;;8.25;4.95;;;;;;;-144.30;49.97;84019.06;5092018;28;20191;-54
2023/08/29 00:16:21;;;;;;;;;;;;;;;;;;;;;
2023/08/29 00:19:14;;;;;;;5.60;4.82;;;;;;;-144.30;50.60;84072.72;5084816;28;20191;-52
2023/08/29 00:22:16;;;;;;;6.68;4.93;;;;;;;-144.30;50.32;84017.06;5087432;28;20693;-55
2023/08/29 00:38:20;;;;;;;16.75;5.72;;;;;;;-144.30;50.23;84068.75;5086790;28;20286;-54
2023/08/29 00:47:09;;;;;;;10.93;6.20;;;;;;;-144.30;50.65;84086.63;5090539;28;20219;-51
2023/08/29 00:50:26;;;;;;;7.20;6.50;;;;;;;-144.30;50.84;84082.66;5089794;28;20196;-53
2023/08/29 00:53:41;;;;;;;6.15;5.63;;;;;;;-144.30;50.27;84023.03;5089312;28;20234;-54
2023/08/29 01:00:05;;;;;;;8.13;6.57;;;;;;;-144.30;50.34;84098.56;5085775;28;20199;-53
2023/08/29 01:05:50;;;;;;;6.28;5.32;;;;;;;-144.30;50.36;84088.63;5089086;28;20278;-54
2023/08/29 01:15:33;;;;;;;5.82;5.32;;;;;;;-144.30;50.09;84120.41;5088548;28;20303;-54
2023/08/29 01:31:46;;;;;;;6.55;5.95;;;;;;;-144.30;50.26;84124.38;5086215;28;20203;-54
2023/08/29 01:38:19;;;;;;;6.00;5.30;;;;;;;-144.30;50.97;84187.97;5090644;28;20235;-54
2023/08/29 01:50:57;;;;;;;5.38;4.88;;;;;;;-144.30;51.00;84189.97;5125587;28;20208;-52
2023/08/29 01:56:55;;;;;;;5.97;5.55;;;;;;;-144.30;51.30;84166.13;5125808;28;20194;-54
2023/08/29 02:09:53;;;;;;;6.45;5.95;;;;;;;-144.30;52.04;84259.50;5123992;28;20198;-54
2023/08/29 02:23:02;;;;;;;8.05;6.30;;;;;;;-144.30;52.75;84267.47;5125548;28;20285;-54
2023/08/29 02:35:49;;;;;;;10.50;6.50;;;;;;;-144.30;53.03;84277.41;5117875;28;20303;-54
2023/08/29 02:38:26;;;;;;;7.82;6.43;;;;;;;-144.30;53.21;84259.50;5103641;28;20194;-53
2023/08/29 02:41:09;;;;;;;5.95;5.35;;;;;;;-144.30;53.14;84271.44;5107311;28;20205;-53
2023/08/29 02:43:50;;;;;;;6.53;5.63;;;;;;;-144.30;53.32;84283.38;5103651;28;20878;-50
2023/08/29 02:52:44;;;;;;;6.22;5.68;;;;;;;-144.30;53.80;84342.97;5106704;28;20202;-52
2023/08/29 02:55:27;;;;;;;14.02;5.60;;;;;;;-144.30;54.14;84317.16;5120442;28;20190;-52
2023/08/29 02:58:03;;;;;;;6.60;5.97;;;;;;;-144.30;54.63;84362.84;5123385;28;20196;-54
2023/08/29 03:00:44;;;;;;;6.72;6.10;;;;;;;-144.30;54.75;84350.94;5124418;28;20284;-52
2023/08/29 03:03:27;;;;;;;6.13;5.43;;;;;;;-144.30;54.93;84382.72;5124465;28;20190;-52
2023/08/29 03:06:02;;;;;;;9.52;6.53;;;;;;;-144.30;55.25;84360.88;5124978;28;20289;-54
2023/08/29 03:08:40;;;;;;;6.43;5.72;;;;;;;-144.30;55.35;84370.81;5124263;28;20190;-51
2023/08/29 03:11:20;;;;;;;6.43;5.93;;;;;;;-144.30;55.71;84386.72;5123864;28;20649;-51
2023/08/29 03:14:03;;;;;;;10.32;5.38;;;;;;;-144.30;56.00;84400.63;5124465;28;20214;-54
2023/08/29 03:16:41;;;;;;;6.60;5.90;;;;;;;-144.30;56.12;84400.63;5123111;28;20190;-54
2023/08/29 03:19:28;;;;;;;6.80;6.13;;;;;;;-144.30;56.48;84402.59;5123369;28;20289;-52
2023/08/29 03:22:02;;;;;;;6.18;5.18;;;;;;;-144.30;56.62;84414.53;5122024;27;20210;-51
2023/08/29 03:24:40;;;;;;;6.60;5.85;;;;;;;-144.30;57.02;84454.28;5124502;28;20677;-50
2023/08/29 03:27:18;;;;;;;6.28;5.65;;;;;;;-144.30;56.99;84420.50;5127015;28;20645;-51
2023/08/29 03:29:51;;;;;;;11.40;6.70;;;;;;;-144.30;56.86;84422.47;5113936;28;20226;-50
2023/08/29 03:32:23;;;;;;;6.43;5.60;;;;;;;-144.30;57.11;84454.28;5126279;28;20204;-51
2023/08/29 03:34:58;;;;;;;12.15;6.28;;;;;;;-144.30;57.15;84446.31;5125857;28;20625;-52
2023/08/29 03:37:29;;;;;;;6.18;5.50;;;;;;;-144.30;56.97;84414.53;5123746;28;20197;-54
2023/08/29 03:40:00;;;;;;;6.93;6.07;;;;;;;-144.30;57.13;84342.97;5126445;28;20634;-54
2023/08/29 03:42:36;;;;;;;10.75;5.53;;;;;;;-144.30;57.22;84464.22;5115773;28;20206;-54
2023/08/29 03:45:09;;;;;;;7.43;5.38;;;;;;;-144.30;57.37;84466.19;5112790;28;20567;-53
2023/08/29 03:47:48;;;;;;;7.43;6.22;;;;;;;-144.30;57.18;84430.44;5112936;28;20232;-53
2023/08/29 03:50:19;;;;;;;7.93;5.65;;;;;;;-144.30;57.37;84458.25;5110835;28;20210;-55
2023/08/29 03:53:00;;;;;;;7.90;5.45;;;;;;;-144.30;57.16;84440.38;5108888;28;20226;-54
2023/08/29 03:55:37;;;;;;;6.20;5.65;;;;;;;-144.30;57.14;84327.09;5111546;28;20195;-54
2023/08/29 03:58:36;;;;;;;10.70;6.00;;;;;;;-144.30;57.02;84418.50;5112538;28;20234;-54
2023/08/29 04:01:11;;;;;;;11.32;6.05;;;;;;;-144.30;56.82;84450.31;5111170;28;20229;-52
2023/08/29 04:03:46;;;;;;;7.53;6.15;;;;;;;-144.30;56.99;84464.22;5112856;28;20243;-53
2023/08/29 04:07:09;;;;;;;11.65;5.70;;;;;;;-144.30;57.07;84424.47;5110245;28;20221;-51
2023/08/29 04:09:40;;;;;;;10.05;6.20;;;;;;;-144.30;57.26;84410.56;5111838;28;20357;-52
2023/08/29 04:18:21;;;;;;;11.55;6.75;;;;;;;-144.30;56.76;84400.63;5110974;28;20245;-55
2023/08/29 04:24:18;;;;;;;14.52;6.85;;;;;;;-144.30;55.79;84325.09;5105141;28;20268;-54
2023/08/29 04:27:16;;;;;;;13.35;7.25;;;;;;;-144.30;54.55;84259.50;5110044;28;20191;-54
2023/08/29 04:33:21;;;;;;;13.90;8.00;;;;;;;-144.30;48.67;83889.91;5108641;28;20210;-52
2023/08/29 04:42:46;;;;;;;8.90;6.70;;;;;;;-144.30;39.65;83182.56;5105639;28;20210;-54
2023/08/29 04:52:17;;;;;;;9.25;6.50;;;;;;;-144.30;34.52;82674.03;5106391;28;20683;-51
2023/08/29 04:55:30;;;;;;;11.80;6.53;;;;;;;-144.30;33.91;82507.19;5110597;28;20189;-54
2023/08/29 04:58:28;;;;;;;9.07;6.47;;;;;;;-144.30;33.17;82296.63;5110687;28;20675;-52
2023/08/29 05:07:57;;;;;;;10.27;9.10;;;;;;;-144.30;30.91;81994.75;5110893;28;20200;-54
2023/08/29 05:10:27;;;;;;;9.50;8.63;;;;;;;-144.30;30.17;81762.41;5108418;28;20249;-51
2023/08/29 05:13:00;;;;;;;10.57;8.98;;;;;;;-144.30;29.72;81637.31;5104470;28;20205;-52
2023/08/29 05:15:29;;;;;;;12.25;8.05;;;;;;;-144.30;30.05;81778.28;5110114;28;20203;-51
2023/08/29 05:18:15;;;;;;;10.60;8.13;;;;;;;-144.30;30.11;81861.69;5111239;28;20198;-54
2023/08/29 05:20:50;;;;;;;9.10;8.20;;;;;;;-144.30;29.51;81688.94;5107598;28;20355;-53
2023/08/29 05:23:41;;;;;;;13.07;8.48;;;;;;;-144.30;29.29;81645.25;5104726;28;20202;-52
2023/08/29 05:26:33;;;;;;;10.25;7.93;;;;;;;-144.30;29.38;81639.28;5108495;28;20202;-53
2023/08/29 05:29:27;;;;;;;11.35;8.75;;;;;;;-144.30;29.21;81506.25;5109576;28;20241;-51
2023/08/29 05:32:10;;;;;;;11.15;8.30;;;;;;;-144.30;29.46;81657.16;5108783;28;20222;-52
2023/08/29 05:35:12;;;;;;;18.40;8.07;;;;;;;-144.30;30.69;81611.47;5109252;28;20787;-53
2023/08/29 05:38:05;;;;;;;13.05;7.50;;;;;;;-144.30;30.23;81611.47;5102107;28;20278;-54
2023/08/29 05:40:42;;;;;;;12.98;7.93;;;;;;;-144.30;30.84;81774.31;5108374;28;20190;-55
2023/08/29 05:43:26;;;;;;;14.07;7.93;;;;;;;-144.30;30.04;81677.00;5108612;28;20573;-53
2023/08/29 05:46:12;;;;;;;8.20;6.95;;;;;;;-144.30;29.77;81593.63;5108473;28;20586;-52
2023/08/29 05:48:59;;;;;;;17.40;8.40;;;;;;;-144.30;30.01;81669.06;5109275;28;20303;-52
2023/08/29 05:51:27;;;;;;;13.02;7.72;;;;;;;-144.30;30.03;81593.63;5106837;28;20213;-53
2023/08/29 05:53:57;;;;;;;18.02;8.98;;;;;;;-144.30;29.94;81700.84;5109366;28;20236;-54
2023/08/29 05:56:28;;;;;;;21.15;8.93;;;;;;;-144.30;29.70;81637.31;5109338;28;20193;-55
2023/08/29 05:59:00;;;;;;;17.15;7.95;;;;;;;-144.30;29.58;81514.19;5109699;28;20194;-54
2023/08/29 06:01:29;;;;;;;22.42;8.38;;;;;;;-144.30;28.98;81406.97;5109444;28;20208;-54
2023/08/29 06:04:00;;;;;;;13.10;7.72;;;;;;;-144.30;29.09;81448.66;5107321;28;20198;-55
2023/08/29 06:06:39;;;;;;;13.35;7.30;;;;;;;-144.30;29.71;81399.00;5109400;28;20582;-54
2023/08/29 06:09:12;;;;;;;14.65;6.75;;;;;;;-144.30;29.07;81466.53;5108091;28;20220;-52
2023/08/29 06:11:44;;;;;;;12.00;8.18;;;;;;;-144.30;29.26;81538.00;5107192;28;20210;-52
2023/08/29 06:14:16;;;;;;;12.60;7.53;;;;;;;-144.30;29.89;81561.84;5109440;28;20234;-52
2023/08/29 06:16:47;;;;;;;13.15;8.10;;;;;;;-144.30;29.54;81480.44;5109937;28;20581;-53
2023/08/29 06:19:17;;;;;;;20.55;8.40;;;;;;;-144.30;29.86;81528.09;5109315;28;20273;-53
2023/08/29 06:21:46;;;;;;;9.57;7.38;;;;;;;-144.30;29.69;81474.47;5109391;28;20224;-53
2023/08/29 06:24:16;;;;;;;21.25;7.97;;;;;;;-144.30;29.61;81593.63;5109094;28;20574;-52
2023/08/29 06:26:47;;;;;;;18.88;8.50;;;;;;;-144.30;29.01;81389.09;5109086;28;20190;-51
2023/08/29 06:29:17;;;;;;;14.65;8.05;;;;;;;-144.30;28.56;81295.75;5109065;28;20197;-53
2023/08/29 06:31:49;;;;;;;20.90;8.80;;;;;;;-144.30;28.76;81174.66;5108079;28;20267;-53
2023/08/29 06:34:18;;;;;;;12.63;8.30;;;;;;;-144.30;27.67;81045.59;5106156;28;20662;-51
2023/08/29 06:36:49;;;;;;;15.63;8.18;;;;;;;-144.30;27.64;80982.06;5108888;28;20718;-51
2023/08/29 06:39:20;;;;;;;14.10;7.60;;;;;;;-144.30;27.69;80972.13;5106477;28;20276;-52
2023/08/29 06:41:55;;;;;;;14.68;8.20;;;;;;;-144.30;27.46;81075.38;5108857;28;20255;-52
2023/08/29 06:44:23;;;;;;;11.13;8.45;;;;;;;-144.30;27.43;80993.97;5106842;28;20197;-52
2023/08/29 06:46:52;;;;;;;17.42;8.32;;;;;;;-144.30;27.26;80970.16;5109329;28;20194;-52
2023/08/29 06:49:23;;;;;;;13.55;7.78;;;;;;;-144.30;27.36;81085.31;5106667;28;20186;-52
2023/08/29 06:51:55;;;;;;;11.38;7.50;;;;;;;-144.30;27.32;81023.75;5109087;28;20210;-59
2023/08/29 06:54:23;;;;;;;23.98;9.00;;;;;;;-144.30;27.26;80855.00;5106741;28;20198;-55
2023/08/29 06:56:58;;;;;;;13.50;7.97;;;;;;;-144.30;26.96;80767.63;5108802;28;20190;-52
2023/08/29 06:59:31;;;;;;;12.57;7.88;;;;;;;-144.30;26.94;80801.41;5107237;28;20220;-52
2023/08/29 07:02:00;;;;;;;15.57;8.10;;;;;;;-144.30;26.77;80763.66;5106629;28;20262;-51
2023/08/29 07:04:29;;;;;;;10.48;7.53;;;;;;;-144.30;26.84;80771.63;5108790;28;20251;-52
2023/08/29 07:07:00;;;;;;;13.98;7.40;;;;;;;-144.30;26.60;80735.88;5109041;28;20647;-54
2023/08/29 07:09:32;;;;;;;10.70;8.18;;;;;;;-144.30;26.91;80819.25;5106657;28;20239;-55
2023/08/29 07:12:03;;;;;;;10.18;7.93;;;;;;;-144.30;26.60;80698.16;5108754;28;20210;-52
2023/08/29 07:14:34;;;;;;;11.32;8.10;;;;;;;-144.30;26.14;80600.88;5108908;28;20225;-51
2023/08/29 07:17:06;;;;;;;14.80;7.82;;;;;;;-144.30;26.21;80557.22;5109921;28;20194;-52
2023/08/29 07:19:39;;;;;;;10.45;8.43;;;;;;;-144.30;25.79;80408.31;5113073;28;20198;-52
2023/08/29 07:22:10;;;;;;;10.32;8.95;;;;;;;-144.30;25.88;80448.03;5107899;28;20225;-53
2023/08/29 07:24:39;;;;;;;19.58;8.82;;;;;;;-144.30;25.97;80434.13;5110346;28;20229;-52
2023/08/29 07:27:11;;;;;;;12.15;8.73;;;;;;;-144.30;25.74;80287.25;5111690;28;20190;-53
2023/08/29 07:29:41;;;;;;;16.73;9.85;;;;;;;-144.30;25.26;80062.94;5112110;28;20194;-51
2023/08/29 07:32:11;;;;;;;16.23;10.90;;;;;;;-144.30;24.79;79870.41;5110558;28;20659;-53
2023/08/29 07:34:40;;;;;;;12.48;10.57;;;;;;;-144.30;25.11;80176.09;5107997;28;20210;-55
2023/08/29 07:37:12;;;;;;;12.30;9.48;;;;;;;-144.30;25.39;80402.38;5112467;28;20225;-54
2023/08/29 07:39:43;;;;;;;8.70;8.00;;;;;;;-144.30;25.61;80606.84;5112464;28;20209;-53
2023/08/29 07:42:16;;;;;;;9.55;8.70;;;;;;;-144.30;25.78;80604.84;5109615;28;20186;-55
2023/08/29 07:44:45;;;;;;;8.73;7.88;;;;;;;-144.30;25.82;80618.75;5112443;28;20205;-54
2023/08/29 07:47:17;;;;;;;11.32;8.20;;;;;;;-144.30;25.78;80708.09;5109835;28;20201;-54
2023/08/29 07:49:52;;;;;;;13.55;7.78;;;;;;;-144.30;26.22;80855.00;5111908;28;20720;-54
2023/08/29 07:52:22;;;;;;;8.77;7.97;;;;;;;-144.30;26.03;80783.53;5111896;28;20300;-54
2023/08/29 07:54:58;;;;;;;15.77;9.85;;;;;;;-144.30;26.21;80710.06;5110023;28;20221;-54
2023/08/29 07:57:31;;;;;;;11.68;10.40;;;;;;;-144.30;25.59;80398.41;5111714;28;20194;-55
2023/08/29 08:00:02;;;;;;;11.20;10.18;;;;;;;-144.30;24.58;80013.31;5112322;28;20709;-54
2023/08/29 08:02:33;;;;;;;12.23;11.10;;;;;;;-144.30;24.35;79779.13;5108955;28;20270;-55
2023/08/29 08:05:04;;;;;;;12.35;11.10;;;;;;;-144.30;24.55;79866.44;5112347;28;20197;-54
2023/08/29 08:07:36;;;;;;;13.15;11.35;;;;;;;-144.30;24.52;79820.78;5108800;28;20198;-55
2023/08/29 08:10:08;;;;;;;13.07;11.18;;;;;;;-144.30;23.90;79660.03;5112086;28;20194;-54
2023/08/29 08:12:49;;;;;;;13.10;11.77;;;;;;;-144.30;24.18;79533.03;5105909;28;20215;-52
2023/08/29 08:15:20;;;;;;;13.00;11.52;;;;;;;-144.30;23.96;79636.22;5091412;28;20198;-51
2023/08/29 08:17:52;;;;;;;15.07;12.18;;;;;;;-144.30;24.06;79560.81;5098968;28;20576;-52
2023/08/29 08:20:22;;;;;;;14.85;13.13;;;;;;;-144.30;24.03;79449.69;5109362;28;20202;-52
2023/08/29 08:22:51;;;;;;;14.65;13.45;;;;;;;-144.30;24.03;79719.56;5108851;28;20602;-52
2023/08/29 08:25:26;;;;;;;27.02;14.68;;;;;;;-144.30;24.21;79826.75;5111408;28;20237;-52
2023/08/29 08:27:59;;;;;;;18.77;16.75;;;;;;;-144.30;24.15;79715.59;5106539;28;20225;-52
2023/08/29 08:30:30;;;;;;;17.85;15.77;;;;;;;-144.30;23.68;79439.75;5110957;28;20218;-51
2023/08/29 08:33:04;;;;;;;17.58;15.77;;;;;;;-144.30;24.21;79644.16;5111115;28;20280;-52
2023/08/29 08:35:37;;;;;;;19.88;17.73;;;;;;;-144.30;23.95;79540.97;5111297;28;20202;-52
2023/08/29 08:38:09;;;;;;;22.63;18.70;;;;;;;-144.30;24.38;79560.81;5110994;28;20217;-54
2023/08/29 08:40:39;;;;;;;21.42;19.17;;;;;;;-144.30;23.86;79306.78;5110999;28;20634;-55
2023/08/29 08:43:13;;;;;;;28.20;21.65;;;;;;;-144.30;24.08;79687.81;5111078;28;20220;-55
2023/08/29 08:45:44;;;;;;;27.00;23.83;;;;;;;-144.30;24.21;79840.66;5110911;28;20636;-55
2023/08/29 08:48:21;;;;;;;35.15;23.52;;;;;;;-144.30;24.57;79957.75;5111287;28;20194;-55
2023/08/29 08:50:52;;;;;;;25.90;23.10;;;;;;;-144.30;24.89;80128.44;5111424;28;20250;-55
2023/08/29 08:53:22;;;;;;;26.15;21.45;;;;;;;-144.30;24.75;80140.34;5104320;28;20705;-54
2023/08/29 08:55:57;;;;;;;25.90;22.80;;;;;;;-144.30;24.97;80160.19;5105456;28;20206;-54
2023/08/29 08:58:33;;;;;;;25.77;21.70;;;;;;;-144.30;25.05;80072.88;5110662;28;20729;-54
2023/08/29 09:01:04;;;;;;;23.80;21.50;;;;;;;-144.30;25.10;80188.00;5110265;28;20228;-54
2023/08/29 09:03:34;;;;;;;27.55;21.50;;;;;;;-144.30;25.25;80396.41;5110262;28;20194;-54
2023/08/29 09:06:04;;;;;;;27.50;21.10;;;;;;;-144.30;25.46;80416.28;5110376;28;20204;-54
2023/08/29 09:08:39;;;;;;;20.33;18.20;;;;;;;-144.30;25.24;80307.09;5108327;28;20197;-54
2023/08/29 09:11:09;;;;;;;19.50;17.60;;;;;;;-144.30;25.22;80390.47;5109537;28;20721;-55
2023/08/29 09:13:49;;;;;;;18.45;16.63;;;;;;;-144.30;25.52;80326.94;5108044;28;20782;-55
2023/08/29 09:16:23;;;;;;;19.02;17.20;;;;;;;-144.30;24.96;80221.72;5107589;28;20221;-55
2023/08/29 09:18:53;;;;;;;19.38;17.42;;;;;;;-144.30;25.03;80134.41;5110450;28;20190;-55
2023/08/29 09:21:24;;;;;;;21.80;19.38;;;;;;;-144.30;25.00;80168.16;5110536;28;20235;-55
2023/08/29 09:23:56;;;;;;;22.42;18.73;;;;;;;-144.30;24.79;80064.94;5110437;28;20186;-54
2023/08/29 09:26:38;;;;;;;18.70;16.77;;;;;;;-144.30;24.49;79894.22;5110231;28;20285;-54
2023/08/29 09:29:27;;;;;;;18.23;15.25;;;;;;;-144.30;25.10;80122.50;5108865;28;20182;-51
2023/08/29 09:32:14;;;;;;;17.00;15.10;;;;;;;-144.30;24.86;79969.66;5107048;28;20217;-54
2023/08/29 09:35:15;;;;;;;17.98;14.13;;;;;;;-144.30;24.75;79729.50;5105666;28;20201;-54
2023/08/29 09:38:09;;;;;;;13.77;12.50;;;;;;;-144.30;23.82;79479.44;5108276;28;20714;-55
2023/08/29 09:40:48;;;;;;;12.65;11.52;;;;;;;-144.30;23.93;79449.69;5105778;28;20626;-54
2023/08/29 09:43:20;;;;;;;14.15;12.57;;;;;;;-144.30;23.78;79263.13;5107250;28;20196;-54
2023/08/29 09:45:54;;;;;;;14.48;11.20;;;;;;;-144.30;23.57;79005.16;5109932;28;20255;-54
2023/08/29 09:48:22;;;;;;;11.43;9.15;;;;;;;-144.30;23.47;78923.81;5106969;28;20278;-55
2023/08/29 09:50:52;;;;;;;10.90;8.50;;;;;;;-144.30;23.53;79148.03;5090069;28;20667;-54
2023/08/29 09:53:22;;;;;;;14.07;7.80;;;;;;;-144.30;23.61;79294.88;5094144;28;20225;-55
2023/08/29 09:56:11;;;;;;;12.25;7.43;;;;;;;-144.30;23.74;79296.88;5110475;28;20197;-55
2023/08/29 09:58:40;;;;;;;7.97;7.30;;;;;;;-144.30;23.88;79491.34;5110082;28;20304;-53
2023/08/29 10:01:18;;;;;;;8.02;6.28;;;;;;;-144.30;24.35;79717.59;5110307;28;20236;-54
2023/08/29 10:03:51;;;;;;;6.80;6.20;;;;;;;-144.30;25.35;80406.34;5110327;28;20246;-53
2023/08/29 10:06:26;;;;;;;9.32;7.70;;;;;;;-144.30;26.29;80775.59;5109960;28;20198;-54
2023/08/29 10:09:03;;;;;;;9.90;7.53;;;;;;;-144.30;27.43;81216.34;5109945;28;20205;-54
2023/08/29 10:11:35;;;;;;;8.50;7.20;;;;;;;-144.30;28.29;81551.91;5109773;28;20262;-54
2023/08/29 10:14:07;;;;;;;7.70;7.00;;;;;;;-144.30;29.82;81867.66;5109972;28;20226;-54
2023/08/29 10:16:39;;;;;;;7.38;6.70;;;;;;;-144.30;29.97;81978.88;5109726;28;20678;-54
2023/08/29 10:19:11;;;;;;;7.32;6.72;;;;;;;-144.30;30.67;81966.94;5109870;28;20289;-54
2023/08/29 10:21:48;;;;;;;9.02;7.28;;;;;;;-144.30;30.77;82044.41;5110045;28;20226;-51
2023/08/29 10:24:21;;;;;;;6.72;6.25;;;;;;;-144.30;31.06;82034.47;5109968;28;20561;-50
2023/08/29 10:26:56;;;;;;;14.43;7.20;;;;;;;-144.30;30.90;82022.56;5109723;28;20198;-50
2023/08/29 10:29:31;;;;;;;7.13;6.53;;;;;;;-144.30;30.51;81966.94;5109797;28;20665;-54
2023/08/29 10:32:05;;;;;;;10.43;6.72;;;;;;;-144.30;30.63;81897.44;5109172;28;20839;-53
2023/08/29 10:34:38;;;;;;;8.88;6.78;;;;;;;-144.30;30.60;81945.09;5109823;28;20590;-53
2023/08/29 10:37:18;;;;;;;7.65;6.80;;;;;;;-144.30;30.60;81931.22;5109372;28;20195;-53
2023/08/29 10:39:51;;;;;;;8.98;8.00;;;;;;;-144.30;30.62;81937.16;5109671;28;20245;-49
2023/08/29 10:42:22;;;;;;;8.18;7.50;;;;;;;-144.30;29.96;81962.97;5109193;28;20583;-50
2023/08/29 10:44:55;;;;;;;8.82;7.93;;;;;;;-144.30;29.93;81982.84;5109418;28;20233;-50
2023/08/29 10:47:31;;;;;;;7.82;7.03;;;;;;;-144.30;29.80;81899.44;5103718;28;20195;-51
2023/08/29 10:50:04;;;;;;;11.00;6.78;;;;;;;-144.30;29.06;81879.56;5107597;28;20198;-49
2023/08/29 10:52:44;;;;;;;7.40;6.65;;;;;;;-144.30;29.14;81788.22;5108688;28;20210;-51
2023/08/29 10:55:25;;;;;;;11.02;7.80;;;;;;;-144.30;29.26;81704.81;5107550;28;20277;-50
2023/08/29 10:57:58;;;;;;;14.52;10.60;;;;;;;-144.30;29.09;81655.19;5110834;28;20186;-53
2023/08/29 11:00:56;;;;;;;10.10;8.43;;;;;;;-144.30;28.99;81629.34;5113141;28;20190;-54
2023/08/29 11:03:49;;;;;;;12.50;7.05;;;;;;;-144.30;28.35;81702.84;5112387;28;20190;-54
2023/08/29 11:06:21;;;;;;;8.40;6.90;;;;;;;-144.30;28.24;81677.00;5111239;28;20740;-54
2023/08/29 11:08:51;;;;;;;7.28;6.47;;;;;;;-144.30;28.33;81665.09;5112831;28;20198;-54
2023/08/29 11:11:24;;;;;;;8.75;5.85;;;;;;;-144.30;28.39;81653.19;5112790;28;20240;-55
2023/08/29 11:14:01;;;;;;;8.02;6.60;;;;;;;-144.30;28.47;81679.00;5110279;28;20218;-54
2023/08/29 11:16:36;;;;;;;9.98;6.45;;;;;;;-144.30;28.32;81734.59;5112813;28;20708;-54
2023/08/29 11:19:15;;;;;;;9.57;6.72;;;;;;;-144.30;28.23;81696.88;5112666;28;20205;-53
2023/08/29 11:21:46;;;;;;;7.45;6.78;;;;;;;-144.30;28.75;81651.19;5111463;28;20198;-54
2023/08/29 11:24:17;;;;;;;9.02;7.15;;;;;;;-144.30;29.19;81625.38;5110585;28;20186;-53
2023/08/29 11:26:47;;;;;;;8.25;7.50;;;;;;;-144.30;29.19;81661.13;5112871;28;20693;-53
2023/08/29 11:29:19;;;;;;;13.30;7.63;;;;;;;-144.30;29.17;81702.84;5110594;28;20194;-53
2023/08/29 11:31:49;;;;;;;10.85;7.05;;;;;;;-144.30;29.02;81611.47;5112380;28;20317;-54
2023/08/29 11:34:28;;;;;;;8.40;7.60;;;;;;;-144.30;29.36;81571.78;5111378;28;20210;-53
2023/08/29 11:37:05;;;;;;;15.95;7.53;;;;;;;-144.30;29.17;81583.69;5110121;28;20266;-54
2023/08/29 11:39:36;;;;;;;8.20;7.40;;;;;;;-144.30;29.10;81569.78;5106910;28;20198;-54
2023/08/29 11:42:12;;;;;;;8.68;7.90;;;;;;;-144.30;28.89;81573.75;5112524;28;20190;-53
2023/08/29 11:44:42;;;;;;;8.88;7.93;;;;;;;-144.30;29.37;81617.44;5110675;28;20244;-54
2023/08/29 11:47:37;;;;;;;10.98;8.23;;;;;;;-144.30;29.43;81702.84;5109584;28;20197;-53
2023/08/29 11:50:10;;;;;;;12.23;8.35;;;;;;;-144.30;29.53;81740.56;5108697;28;20199;-53
2023/08/29 11:52:41;;;;;;;12.57;7.63;;;;;;;-144.30;29.59;82062.28;5110512;28;20226;-54
2023/08/29 11:55:15;;;;;;;9.65;8.50;;;;;;;-144.30;29.87;82519.09;5111910;28;20269;-55
2023/08/29 11:57:52;;;;;;;17.85;9.23;;;;;;;-144.30;30.05;81812.06;5111998;28;20282;-54
2023/08/29 12:00:30;;;;;;;10.40;9.15;;;;;;;-144.30;30.11;81831.91;5110512;28;20518;-54
2023/08/29 12:03:07;;;;;;;11.30;9.27;;;;;;;-144.30;30.31;81839.84;5109769;28;20283;-54
2023/08/29 12:05:41;;;;;;;10.70;9.50;;;;;;;-144.30;30.27;81827.94;5109493;28;20198;-54
2023/08/29 12:08:09;;;;;;;10.57;9.45;;;;;;;-144.30;30.57;81818.00;5112092;28;20709;-54
2023/08/29 12:10:37;;;;;;;10.82;9.77;;;;;;;-144.30;30.48;81879.56;5111792;28;20198;-51
2023/08/29 12:13:15;;;;;;;14.55;9.57;;;;;;;-144.30;30.61;81885.53;5106753;28;20210;-51
2023/08/29 12:15:43;;;;;;;17.95;11.05;;;;;;;-144.30;30.73;81903.41;5110573;28;20276;-51
2023/08/29 12:18:21;;;;;;;14.50;10.23;;;;;;;-144.30;30.89;81943.13;5108573;28;20829;-50
2023/08/29 12:20:53;;;;;;;11.27;10.30;;;;;;;-144.30;30.75;81968.94;5111466;28;20656;-51
2023/08/29 12:23:28;;;;;;;12.85;9.88;;;;;;;-144.30;30.96;82010.66;5109933;28;20639;-54
2023/08/29 12:26:00;;;;;;;16.02;10.98;;;;;;;-144.30;30.79;81970.94;5109450;28;20583;-54
2023/08/29 12:28:31;;;;;;;14.80;10.30;;;;;;;-144.30;30.74;81984.81;5110402;28;20202;-53
2023/08/29 12:31:02;;;;;;;16.98;11.13;;;;;;;-144.30;31.06;82080.16;5103202;28;20607;-54
2023/08/29 12:33:36;;;;;;;15.70;12.20;;;;;;;-144.30;31.22;82133.78;5111741;28;20713;-54
2023/08/29 12:36:08;;;;;;;13.43;11.93;;;;;;;-144.30;31.30;82125.84;5111868;28;20202;-54
2023/08/29 12:38:39;;;;;;;15.35;13.77;;;;;;;-144.30;31.57;82078.16;5111770;28;20286;-54
2023/08/29 12:41:09;;;;;;;37.83;15.90;;;;;;;-144.30;32.43;82215.22;5111581;28;20581;-54
2023/08/29 12:43:43;;;;;;;33.10;17.08;;;;;;;-144.30;32.88;82239.03;5111048;28;20190;-51
2023/08/29 12:46:13;;;;;;;25.52;17.45;;;;;;;-144.30;32.67;82308.56;5111825;28;20771;-50
2023/08/29 12:48:42;;;;;;;23.13;18.70;;;;;;;-144.30;33.43;82374.09;5111403;28;20678;-52
2023/08/29 12:51:13;;;;;;;22.52;18.90;;;;;;;-144.30;33.15;82415.81;5111181;28;20195;-51
2023/08/29 12:53:43;;;;;;;24.25;19.00;;;;;;;-144.30;33.92;82471.44;5108499;28;20218;-55
2023/08/29 12:56:16;;;;;;;25.20;19.48;;;;;;;-144.30;34.05;82503.22;5108955;28;20209;-55
2023/08/29 12:58:52;;;;;;;42.28;20.90;;;;;;;-144.30;35.44;82519.09;5110695;28;20198;-52
2023/08/29 13:01:27;;;;;;;28.42;19.95;;;;;;;-144.30;37.62;82435.66;5111041;28;20198;-51
2023/08/29 13:04:00;;;;;;;20.05;17.75;;;;;;;-144.30;39.39;82654.16;5111241;28;20759;-51
2023/08/29 13:06:31;;;;;;;23.75;16.30;;;;;;;-144.30;42.52;82765.41;5110946;28;20241;-52
2023/08/29 13:09:04;;;;;;;25.40;15.80;;;;;;;-144.30;46.59;82811.09;5111126;28;20244;-52
2023/08/29 13:11:35;;;;;;;25.30;17.17;;;;;;;-144.30;51.46;82948.16;5111014;28;20202;-50
2023/08/29 13:14:05;;;;;;;30.30;18.42;;;;;;;-144.30;55.95;82918.38;5110493;28;20305;-52
2023/08/29 13:16:36;;;;;;;32.72;18.20;;;;;;;-144.30;57.55;83087.22;5108910;28;20256;-51
2023/08/29 13:19:06;;;;;;;22.33;16.92;;;;;;;-144.30;58.99;83140.84;5111204;28;20194;-51
2023/08/29 13:21:38;;;;;;;20.63;15.77;;;;;;;-144.30;59.44;83194.50;5093116;28;20203;-51
2023/08/29 13:24:09;;;;;;;20.83;15.85;;;;;;;-144.30;60.17;83224.28;5092686;28;20663;-51
2023/08/29 13:26:37;;;;;;;18.33;15.25;;;;;;;-144.30;61.75;83262.03;5090403;28;20195;-54
2023/08/29 13:29:06;;;;;;;18.98;15.38;;;;;;;-144.30;64.53;83337.53;5107704;28;20734;-55
2023/08/29 13:31:36;;;;;;;17.00;15.18;;;;;;;-144.30;65.25;83335.56;5109415;28;20230;-55
2023/08/29 13:34:06;;;;;;;23.40;16.55;;;;;;;-144.30;67.41;83333.56;5091778;28;20231;-55
2023/08/29 13:36:38;;;;;;;19.60;15.10;;;;;;;-144.30;67.44;83345.50;5090359;28;20202;-55
2023/08/29 13:39:08;;;;;;;18.85;16.75;;;;;;;-144.30;67.50;83321.66;5090506;28;20679;-51
2023/08/29 13:41:37;;;;;;;22.98;15.05;;;;;;;-144.30;66.76;83339.53;5090086;28;20203;-52
2023/08/29 13:44:08;;;;;;;19.27;14.77;;;;;;;-144.30;67.08;83381.25;5090438;28;20192;-51
2023/08/29 13:46:41;;;;;;;22.30;14.95;;;;;;;-144.30;66.78;83367.34;5090418;28;20206;-50
2023/08/29 13:49:12;;;;;;;18.98;15.73;;;;;;;-144.30;69.13;83387.22;5090286;28;20198;-53
2023/08/29 13:51:45;;;;;;;18.88;14.95;;;;;;;-144.30;68.94;83355.41;5089951;28;20191;-51
2023/08/29 13:54:18;;;;;;;26.27;15.80;;;;;;;-144.30;69.78;83349.47;5090011;28;20352;-53
2023/08/29 13:56:51;;;;;;;23.63;17.02;;;;;;;-144.30;68.33;83369.34;5103167;28;20240;-54
2023/08/29 13:59:23;;;;;;;17.52;15.35;;;;;;;-144.30;66.00;83343.50;5110221;28;20271;-53
2023/08/29 14:01:53;;;;;;;25.90;15.13;;;;;;;-144.30;65.98;83313.69;5110378;28;20328;-54
2023/08/29 14:04:24;;;;;;;15.98;12.95;;;;;;;-144.30;64.84;83353.44;5109226;28;20569;-50
2023/08/29 14:06:59;;;;;;;17.58;12.25;;;;;;;-144.30;63.49;83345.50;5109523;28;20237;-53
2023/08/29 14:09:29;;;;;;;22.90;12.20;;;;;;;-144.30;66.55;83434.91;5094722;28;20385;-53